Time;durP1;ratioP1;P1;durP2;ratioP2;P2;SDS_P1;SDS_P2;PMS_P1;PMS_P2;Temp;Humidity;BMP_temperature;BMP_pressure;BME280_temperature;BME280_humidity;BME280_pressure;Samples;Min_cycle;Max_cycle;Signal;HPM_P1;HPM_P2
2021/06/27 00:01:29;;;;;;;6.95;6.25;;;;;;;;;;5113925;28;20432;-82
2021/06/27 00:03:57;;;;;;;10.18;6.35;;;;;;;;;;5113108;28;20077;-81
2021/06/27 00:06:22;;;;;;;8.07;6.22;;;;;;;;;;5113587;28;20097;-82
2021/06/27 00:08:48;;;;;;;7.03;6.32;;;;;;;;;;5112756;28;20594;-81
2021/06/27 00:11:15;;;;;;;7.30;5.75;;;;;;;;;;5113910;28;20070;-81
2021/06/27 00:13:44;;;;;;;8.57;6.18;;;;;;;;;;5095595;28;20012;-82
2021/06/27 00:16:10;;;;;;;6.63;5.80;;;;;;;;;;5112963;28;20035;-81
2021/06/27 00:18:37;;;;;;;6.82;6.07;;;;;;;;;;5095660;28;20024;-81
2021/06/27 00:21:04;;;;;;;8.43;6.13;;;;;;;;;;5112857;28;20032;-81
2021/06/27 00:23:32;;;;;;;6.90;6.30;;;;;;;;;;5107787;28;20020;-81
2021/06/27 00:25:59;;;;;;;6.50;5.90;;;;;;;;;;5112459;28;20027;-81
2021/06/27 00:28:24;;;;;;;7.45;5.93;;;;;;;;;;5094352;28;20034;-81
2021/06/27 00:30:51;;;;;;;8.70;6.13;;;;;;;;;;5077563;28;20032;-81
2021/06/27 00:33:16;;;;;;;8.63;6.30;;;;;;;;;;5097394;28;20038;-81
2021/06/27 00:35:42;;;;;;;7.43;6.63;;;;;;;;;;5113298;28;20483;-81
2021/06/27 00:38:10;;;;;;;7.78;6.10;;;;;;;;;;5097461;28;20093;-81
2021/06/27 00:40:36;;;;;;;7.15;6.07;;;;;;;;;;5108349;28;20074;-81
2021/06/27 00:43:01;;;;;;;7.63;6.32;;;;;;;;;;5117597;28;20415;-82
2021/06/27 00:45:27;;;;;;;6.88;6.18;;;;;;;;;;5117499;28;20019;-81
2021/06/27 00:47:53;;;;;;;6.80;6.10;;;;;;;;;;5116673;28;20046;-82
2021/06/27 00:50:25;;;;;;;7.35;6.40;;;;;;;;;;5117072;28;20408;-81
2021/06/27 00:52:51;;;;;;;10.90;6.95;;;;;;;;;;5085441;28;20051;-81
2021/06/27 00:55:16;;;;;;;7.60;6.38;;;;;;;;;;5110861;28;20051;-81
2021/06/27 00:57:43;;;;;;;10.95;6.90;;;;;;;;;;5098244;28;20031;-82
2021/06/27 01:00:10;;;;;;;8.13;6.57;;;;;;;;;;5115179;28;20023;-82
2021/06/27 01:02:35;;;;;;;13.02;7.05;;;;;;;;;;5116725;28;20023;-81
2021/06/27 01:05:03;;;;;;;7.57;6.80;;;;;;;;;;5116448;28;20035;-81
2021/06/27 01:07:28;;;;;;;9.75;6.90;;;;;;;;;;5116919;28;20047;-81
2021/06/27 01:09:53;;;;;;;7.30;6.40;;;;;;;;;;5106437;28;20388;-81
2021/06/27 01:12:19;;;;;;;9.60;6.80;;;;;;;;;;5096366;28;20042;-81
2021/06/27 01:14:44;;;;;;;7.67;6.97;;;;;;;;;;5097457;28;20031;-81
2021/06/27 01:17:09;;;;;;;7.65;6.40;;;;;;;;;;5115977;28;20257;-81
2021/06/27 01:19:34;;;;;;;7.93;6.30;;;;;;;;;;5109765;28;20082;-81
2021/06/27 01:22:00;;;;;;;7.40;6.57;;;;;;;;;;5096158;28;20035;-81
2021/06/27 01:24:26;;;;;;;8.63;7.22;;;;;;;;;;5104757;28;20273;-81
2021/06/27 01:26:51;;;;;;;8.18;6.70;;;;;;;;;;5116851;28;20012;-81
2021/06/27 01:29:18;;;;;;;7.75;6.50;;;;;;;;;;5116266;28;20463;-81
2021/06/27 01:31:44;;;;;;;7.20;6.50;;;;;;;;;;5115709;28;20448;-81
2021/06/27 01:34:10;;;;;;;7.47;6.72;;;;;;;;;;5116714;28;20027;-81
2021/06/27 01:36:35;;;;;;;7.68;6.60;;;;;;;;;;5116820;28;20441;-81
2021/06/27 01:39:00;;;;;;;7.95;6.68;;;;;;;;;;5086907;28;20056;-81
2021/06/27 01:41:25;;;;;;;7.60;6.28;;;;;;;;;;5076905;28;20034;-82
2021/06/27 01:43:51;;;;;;;10.90;7.07;;;;;;;;;;5095140;28;20108;-82
2021/06/27 01:46:18;;;;;;;7.88;7.05;;;;;;;;;;5096054;28;20047;-82
2021/06/27 01:48:45;;;;;;;7.53;6.80;;;;;;;;;;5077870;28;20074;-82
2021/06/27 01:51:13;;;;;;;9.00;7.30;;;;;;;;;;5110650;28;20019;-82
2021/06/27 01:53:39;;;;;;;7.78;6.95;;;;;;;;;;5116195;28;20020;-82
2021/06/27 01:56:06;;;;;;;8.38;6.90;;;;;;;;;;5115304;28;20115;-81
2021/06/27 01:58:36;;;;;;;7.43;6.57;;;;;;;;;;5116182;28;20610;-81
2021/06/27 02:01:04;;;;;;;8.32;6.70;;;;;;;;;;5116368;28;20397;-81
2021/06/27 02:03:29;;;;;;;7.75;6.93;;;;;;;;;;5110147;28;20020;-81
2021/06/27 02:06:00;;;;;;;10.07;7.13;;;;;;;;;;5095527;28;20048;-81
2021/06/27 02:08:35;;;;;;;7.63;6.93;;;;;;;;;;5077667;28;20266;-81
2021/06/27 02:11:02;;;;;;;8.18;6.85;;;;;;;;;;5095884;28;20016;-81
2021/06/27 02:13:27;;;;;;;8.38;7.47;;;;;;;;;;5095485;28;20024;-81
2021/06/27 02:15:52;;;;;;;7.63;6.93;;;;;;;;;;5095445;28;20383;-81
2021/06/27 02:18:26;;;;;;;9.55;7.57;;;;;;;;;;5106442;28;20164;-81
2021/06/27 02:20:53;;;;;;;13.30;7.65;;;;;;;;;;5116010;28;20019;-81
2021/06/27 02:23:18;;;;;;;10.77;7.75;;;;;;;;;;5095737;28;20229;-81
2021/06/27 02:25:44;;;;;;;10.70;7.77;;;;;;;;;;5095319;28;20388;-81
2021/06/27 02:28:12;;;;;;;12.57;7.28;;;;;;;;;;5112207;28;20783;-81
2021/06/27 02:30:37;;;;;;;8.15;7.35;;;;;;;;;;5115610;28;20020;-81
2021/06/27 02:33:03;;;;;;;9.77;7.38;;;;;;;;;;5115681;28;20022;-81
2021/06/27 02:35:28;;;;;;;7.78;7.00;;;;;;;;;;5114745;28;20104;-81
2021/06/27 02:37:57;;;;;;;8.63;6.80;;;;;;;;;;5115625;28;20051;-81
2021/06/27 02:40:22;;;;;;;8.55;7.05;;;;;;;;;;5100791;28;20274;-81
2021/06/27 02:42:47;;;;;;;7.28;6.57;;;;;;;;;;5105206;28;20449;-82
2021/06/27 02:45:15;;;;;;;7.83;7.00;;;;;;;;;;5097097;28;20020;-81
2021/06/27 02:47:41;;;;;;;7.63;6.75;;;;;;;;;;5096925;28;20274;-81
2021/06/27 02:50:08;;;;;;;7.50;6.82;;;;;;;;;;5115411;28;20095;-81
2021/06/27 02:52:33;;;;;;;10.20;7.20;;;;;;;;;;5114936;28;20507;-81
2021/06/27 02:54:58;;;;;;;8.90;7.00;;;;;;;;;;5114283;28;20094;-81
2021/06/27 02:57:26;;;;;;;8.80;6.80;;;;;;;;;;5096870;28;20066;-81
2021/06/27 02:59:53;;;;;;;7.65;6.95;;;;;;;;;;5114852;28;20322;-81
2021/06/27 03:02:19;;;;;;;7.78;6.88;;;;;;;;;;5113797;28;20023;-81
2021/06/27 03:04:44;;;;;;;10.20;7.72;;;;;;;;;;5114516;28;20355;-79
2021/06/27 03:07:11;;;;;;;8.60;7.23;;;;;;;;;;5101458;28;20518;-81
2021/06/27 03:09:36;;;;;;;9.45;7.28;;;;;;;;;;5094435;28;20254;-81
2021/06/27 03:12:01;;;;;;;7.95;7.15;;;;;;;;;;5119483;27;20031;-81
2021/06/27 03:14:27;;;;;;;7.88;7.07;;;;;;;;;;5096902;28;20027;-81
2021/06/27 03:16:52;;;;;;;7.97;7.25;;;;;;;;;;5106907;28;20133;-81
2021/06/27 03:19:17;;;;;;;8.10;6.80;;;;;;;;;;5094160;28;20031;-81
2021/06/27 03:21:43;;;;;;;10.30;7.18;;;;;;;;;;5097773;28;20020;-81
2021/06/27 03:24:08;;;;;;;7.57;6.63;;;;;;;;;;5103144;28;20020;-82
2021/06/27 03:26:38;;;;;;;8.15;7.45;;;;;;;;;;5114016;28;20094;-81
2021/06/27 03:29:04;;;;;;;8.63;7.82;;;;;;;;;;5113223;28;20053;-81
2021/06/27 03:31:29;;;;;;;8.15;7.00;;;;;;;;;;5093864;28;20048;-81
2021/06/27 03:33:54;;;;;;;10.40;7.43;;;;;;;;;;5094199;28;20020;-82
2021/06/27 03:36:22;;;;;;;9.57;7.10;;;;;;;;;;5093605;28;20149;-82
2021/06/27 03:41:31;;;;;;;7.50;6.70;;;;;;;;;;5094241;28;20020;-82
2021/06/27 03:43:56;;;;;;;9.32;7.57;;;;;;;;;;5108850;28;20035;-82
2021/06/27 03:46:24;;;;;;;10.30;7.30;;;;;;;;;;5114092;28;20023;-82
2021/06/27 03:48:49;;;;;;;9.52;8.20;;;;;;;;;;5096089;28;20481;-82
2021/06/27 03:51:15;;;;;;;8.68;7.60;;;;;;;;;;5113206;28;20019;-81
2021/06/27 03:53:40;;;;;;;8.40;7.45;;;;;;;;;;5114074;28;20026;-81
2021/06/27 03:56:08;;;;;;;7.78;6.97;;;;;;;;;;5114196;28;20015;-81
2021/06/27 03:58:33;;;;;;;7.95;7.15;;;;;;;;;;5113134;28;20491;-80
2021/06/27 04:00:58;;;;;;;8.52;7.65;;;;;;;;;;5113829;28;20069;-80
2021/06/27 04:03:26;;;;;;;9.23;7.85;;;;;;;;;;5105054;28;20432;-81
2021/06/27 04:05:51;;;;;;;9.13;8.23;;;;;;;;;;5127647;27;20104;-80
2021/06/27 04:08:16;;;;;;;9.10;8.20;;;;;;;;;;5112267;28;20019;-81
2021/06/27 04:10:42;;;;;;;8.80;7.30;;;;;;;;;;5112541;28;20265;-82
2021/06/27 04:13:07;;;;;;;8.32;7.20;;;;;;;;;;5113237;28;20261;-81
2021/06/27 04:15:33;;;;;;;9.88;7.03;;;;;;;;;;5112762;28;20027;-81
2021/06/27 04:17:58;;;;;;;9.02;7.55;;;;;;;;;;5095805;28;20035;-81
2021/06/27 04:20:25;;;;;;;8.35;7.55;;;;;;;;;;5113450;28;20094;-81
2021/06/27 04:22:51;;;;;;;8.95;7.38;;;;;;;;;;5088756;28;20016;-82
2021/06/27 04:25:18;;;;;;;8.20;7.40;;;;;;;;;;5094196;28;20432;-81
2021/06/27 04:27:44;;;;;;;9.55;7.38;;;;;;;;;;5113083;28;20375;-81
2021/06/27 04:30:11;;;;;;;8.45;7.35;;;;;;;;;;5112685;28;20031;-81
2021/06/27 04:32:37;;;;;;;9.82;7.82;;;;;;;;;;5113494;28;20043;-81
2021/06/27 04:35:03;;;;;;;8.82;7.93;;;;;;;;;;5104985;28;20032;-81
2021/06/27 04:37:28;;;;;;;8.77;7.88;;;;;;;;;;5105900;28;20075;-81
2021/06/27 04:39:53;;;;;;;9.82;8.27;;;;;;;;;;5107294;28;20020;-82
2021/06/27 04:42:18;;;;;;;8.17;7.10;;;;;;;;;;5093111;28;20021;-81
2021/06/27 04:44:46;;;;;;;10.95;7.80;;;;;;;;;;5093042;28;20246;-81
2021/06/27 04:47:11;;;;;;;8.48;7.72;;;;;;;;;;5093304;28;20081;-82
2021/06/27 04:49:40;;;;;;;8.82;7.68;;;;;;;;;;5092728;28;20016;-82
2021/06/27 04:52:09;;;;;;;8.73;7.82;;;;;;;;;;5110255;28;20032;-82
2021/06/27 04:54:34;;;;;;;10.15;7.93;;;;;;;;;;5110800;28;20043;-72
2021/06/27 04:56:59;;;;;;;9.27;7.90;;;;;;;;;;5109390;28;20024;-73
2021/06/27 04:59:25;;;;;;;8.50;7.57;;;;;;;;;;5107808;28;20016;-75
2021/06/27 05:01:53;;;;;;;8.90;8.00;;;;;;;;;;5110868;28;20045;-74
2021/06/27 05:04:18;;;;;;;8.48;7.72;;;;;;;;;;5107031;28;20053;-72
2021/06/27 05:06:43;;;;;;;10.03;7.77;;;;;;;;;;5108647;28;20044;-71
2021/06/27 05:09:08;;;;;;;9.53;8.23;;;;;;;;;;5098852;28;20268;-72
2021/06/27 05:11:36;;;;;;;8.93;8.05;;;;;;;;;;5089023;28;20257;-71
2021/06/27 05:14:01;;;;;;;8.60;7.72;;;;;;;;;;5093909;28;20035;-71
2021/06/27 05:16:29;;;;;;;9.82;8.43;;;;;;;;;;5111000;28;20011;-71
2021/06/27 05:18:55;;;;;;;8.88;7.97;;;;;;;;;;5112240;28;20020;-71
2021/06/27 05:21:20;;;;;;;9.97;8.63;;;;;;;;;;5094229;28;20050;-71
2021/06/27 05:23:45;;;;;;;11.80;8.70;;;;;;;;;;5092399;28;20252;-72
2021/06/27 05:26:10;;;;;;;9.80;8.43;;;;;;;;;;5111540;28;20090;-71
2021/06/27 05:28:38;;;;;;;11.20;8.13;;;;;;;;;;5094645;28;20546;-72
2021/06/27 05:31:03;;;;;;;10.25;7.53;;;;;;;;;;5115291;28;20019;-71
2021/06/27 05:33:28;;;;;;;9.93;8.20;;;;;;;;;;5116016;28;20381;-74
2021/06/27 05:35:54;;;;;;;8.80;7.97;;;;;;;;;;5095216;28;20047;-75
2021/06/27 05:38:19;;;;;;;9.02;7.50;;;;;;;;;;5111746;28;20391;-73
2021/06/27 05:40:44;;;;;;;8.00;7.20;;;;;;;;;;5110795;28;20419;-73
2021/06/27 05:43:10;;;;;;;8.88;7.75;;;;;;;;;;5113018;28;20015;-72
2021/06/27 05:45:37;;;;;;;9.35;7.45;;;;;;;;;;5115237;28;20023;-73
2021/06/27 05:48:03;;;;;;;9.52;6.85;;;;;;;;;;5116320;28;20040;-73
2021/06/27 05:50:30;;;;;;;8.57;6.72;;;;;;;;;;5104746;28;20206;-73
2021/06/27 05:52:55;;;;;;;9.20;7.15;;;;;;;;;;5077954;28;20124;-73
2021/06/27 05:55:23;;;;;;;9.95;6.75;;;;;;;;;;5103968;28;20069;-73
2021/06/27 05:57:48;;;;;;;9.73;6.85;;;;;;;;;;5116012;28;20027;-73
2021/06/27 06:00:13;;;;;;;7.68;6.50;;;;;;;;;;5097045;28;20026;-73
2021/06/27 06:02:39;;;;;;;8.57;7.07;;;;;;;;;;5116247;28;20053;-73
2021/06/27 06:05:04;;;;;;;7.43;6.63;;;;;;;;;;5115761;28;20118;-72
2021/06/27 06:07:29;;;;;;;7.65;6.95;;;;;;;;;;5116334;28;20047;-73
2021/06/27 06:09:54;;;;;;;8.40;6.95;;;;;;;;;;5114934;28;20365;-73
2021/06/27 06:12:20;;;;;;;7.33;6.63;;;;;;;;;;5115703;28;20069;-73
2021/06/27 06:14:45;;;;;;;9.48;7.00;;;;;;;;;;5102443;28;20265;-73
2021/06/27 06:17:10;;;;;;;7.60;6.90;;;;;;;;;;5114360;28;20085;-75
2021/06/27 06:19:37;;;;;;;7.60;6.90;;;;;;;;;;5115385;28;20258;-72
2021/06/27 06:22:02;;;;;;;8.95;7.13;;;;;;;;;;5115451;28;20281;-76
2021/06/27 06:24:28;;;;;;;7.57;6.88;;;;;;;;;;5100042;28;20013;-71
2021/06/27 06:26:53;;;;;;;8.68;7.15;;;;;;;;;;5096499;28;20016;-71
2021/06/27 06:29:18;;;;;;;7.50;6.80;;;;;;;;;;5115006;28;20054;-72
2021/06/27 06:31:46;;;;;;;8.73;6.95;;;;;;;;;;5115736;28;20253;-72
2021/06/27 06:34:11;;;;;;;7.18;6.47;;;;;;;;;;5114213;28;20027;-73
2021/06/27 06:36:36;;;;;;;7.10;6.50;;;;;;;;;;5113034;27;20016;-73
2021/06/27 06:39:02;;;;;;;6.73;6.13;;;;;;;;;;5126169;27;20036;-73
2021/06/27 06:41:27;;;;;;;7.18;6.43;;;;;;;;;;5101673;27;20281;-73
2021/06/27 06:43:52;;;;;;;7.70;6.40;;;;;;;;;;5125162;27;20450;-74
2021/06/27 06:46:18;;;;;;;8.48;6.18;;;;;;;;;;5094289;28;20091;-73
2021/06/27 06:48:43;;;;;;;7.55;6.78;;;;;;;;;;5111083;27;20020;-77
2021/06/27 06:51:13;;;;;;;6.95;6.25;;;;;;;;;;5117602;27;20015;-71
2021/06/27 06:53:38;;;;;;;6.88;6.28;;;;;;;;;;5116327;27;20442;-73
2021/06/27 06:56:03;;;;;;;6.73;6.13;;;;;;;;;;5094709;28;20118;-73
2021/06/27 06:58:29;;;;;;;6.72;5.95;;;;;;;;;;5094450;28;20273;-74
2021/06/27 07:00:58;;;;;;;8.45;6.40;;;;;;;;;;5115115;28;20023;-72
2021/06/27 07:03:24;;;;;;;6.75;5.93;;;;;;;;;;5119782;27;20018;-73
2021/06/27 07:05:51;;;;;;;6.63;5.90;;;;;;;;;;5135392;27;20439;-71
2021/06/27 07:08:17;;;;;;;6.78;6.07;;;;;;;;;;5123414;27;20386;-72
2021/06/27 07:10:42;;;;;;;7.03;6.40;;;;;;;;;;5112818;27;20053;-72
2021/06/27 07:13:10;;;;;;;8.60;5.67;;;;;;;;;;5123356;27;20055;-72
2021/06/27 07:15:37;;;;;;;7.00;6.30;;;;;;;;;;5114261;27;20744;-73
2021/06/27 07:18:03;;;;;;;8.82;5.65;;;;;;;;;;5109196;28;20023;-72
2021/06/27 07:20:28;;;;;;;6.95;6.35;;;;;;;;;;5110405;27;20015;-72
2021/06/27 07:22:53;;;;;;;7.20;6.05;;;;;;;;;;5113335;27;20109;-73
2021/06/27 07:25:19;;;;;;;6.53;5.93;;;;;;;;;;5093225;27;20046;-72
2021/06/27 07:27:44;;;;;;;6.57;5.97;;;;;;;;;;5112789;27;20354;-72
2021/06/27 07:30:09;;;;;;;17.17;8.50;;;;;;;;;;5111672;28;20689;-72
2021/06/27 07:32:35;;;;;;;7.43;6.45;;;;;;;;;;5113702;28;20012;-72
2021/06/27 07:35:00;;;;;;;10.00;6.82;;;;;;;;;;5113779;27;20019;-72
2021/06/27 07:37:28;;;;;;;9.00;6.38;;;;;;;;;;5114402;27;20039;-72
2021/06/27 07:39:53;;;;;;;7.93;6.38;;;;;;;;;;5112625;28;20115;-73
2021/06/27 07:42:18;;;;;;;8.68;6.97;;;;;;;;;;5109356;27;20043;-72
2021/06/27 07:44:46;;;;;;;8.60;6.67;;;;;;;;;;5111597;27;20018;-72
2021/06/27 07:47:11;;;;;;;6.68;5.97;;;;;;;;;;5109670;28;20253;-73
2021/06/27 07:49:36;;;;;;;7.32;6.22;;;;;;;;;;5107589;27;20026;-72
2021/06/27 07:52:07;;;;;;;6.47;5.88;;;;;;;;;;5117755;27;20015;-72
2021/06/27 07:54:32;;;;;;;9.02;6.50;;;;;;;;;;5121488;27;20020;-72
2021/06/27 07:56:58;;;;;;;7.13;6.40;;;;;;;;;;5117156;27;20018;-73
2021/06/27 07:59:23;;;;;;;7.47;6.07;;;;;;;;;;5100073;27;20037;-73
2021/06/27 08:01:50;;;;;;;7.57;5.82;;;;;;;;;;5116246;27;20376;-72
2021/06/27 08:04:16;;;;;;;6.40;5.80;;;;;;;;;;5124462;27;20020;-72
2021/06/27 08:06:43;;;;;;;6.32;5.72;;;;;;;;;;5114295;27;20070;-72
2021/06/27 08:09:08;;;;;;;11.30;5.63;;;;;;;;;;5095317;28;20008;-73
2021/06/27 08:11:34;;;;;;;6.00;5.50;;;;;;;;;;5116790;27;20038;-73
2021/06/27 08:13:59;;;;;;;6.85;5.97;;;;;;;;;;5113243;28;20265;-73
2021/06/27 08:16:24;;;;;;;6.23;5.30;;;;;;;;;;5113185;28;20020;-73
2021/06/27 08:18:49;;;;;;;6.43;5.85;;;;;;;;;;5112786;28;20252;-72
2021/06/27 08:21:15;;;;;;;6.40;5.80;;;;;;;;;;5111870;28;20015;-73
2021/06/27 08:23:40;;;;;;;6.00;5.50;;;;;;;;;;5113120;28;20278;-72
2021/06/27 08:26:06;;;;;;;9.05;5.70;;;;;;;;;;5113285;28;20023;-72
2021/06/27 08:28:32;;;;;;;6.22;5.60;;;;;;;;;;5106201;28;20031;-74
2021/06/27 08:30:57;;;;;;;7.13;6.03;;;;;;;;;;5101097;28;20393;-74
2021/06/27 08:33:22;;;;;;;6.57;5.97;;;;;;;;;;5111747;28;20099;-74
2021/06/27 08:35:48;;;;;;;6.38;5.78;;;;;;;;;;5113029;28;20023;-74
2021/06/27 08:38:16;;;;;;;6.38;5.53;;;;;;;;;;5112075;28;20095;-74
2021/06/27 08:40:41;;;;;;;6.60;5.72;;;;;;;;;;5106369;28;20535;-75
2021/06/27 08:43:07;;;;;;;6.70;5.53;;;;;;;;;;5095131;28;20103;-75
2021/06/27 08:45:34;;;;;;;6.30;5.80;;;;;;;;;;5113239;28;20034;-74
2021/06/27 08:47:59;;;;;;;8.10;7.30;;;;;;;;;;5112101;28;20559;-74
2021/06/27 08:50:25;;;;;;;6.75;5.68;;;;;;;;;;5112726;28;20019;-75
2021/06/27 08:52:51;;;;;;;6.20;5.60;;;;;;;;;;5116809;28;20051;-75
2021/06/27 08:55:16;;;;;;;6.85;6.18;;;;;;;;;;5116774;28;20015;-74
2021/06/27 08:57:44;;;;;;;7.07;6.38;;;;;;;;;;5117023;28;20132;-73
2021/06/27 09:00:10;;;;;;;7.75;6.95;;;;;;;;;;5117304;28;20088;-73
2021/06/27 09:02:37;;;;;;;6.65;5.85;;;;;;;;;;5115551;28;20382;-71
2021/06/27 09:05:03;;;;;;;6.50;5.68;;;;;;;;;;5116881;28;20020;-74
2021/06/27 09:07:32;;;;;;;6.50;5.90;;;;;;;;;;5115553;28;20056;-74
2021/06/27 09:10:07;;;;;;;5.90;5.40;;;;;;;;;;5116843;28;20039;-74
2021/06/27 09:12:50;;;;;;;7.20;5.32;;;;;;;;;;5117125;28;20161;-74
2021/06/27 09:15:32;;;;;;;8.68;7.43;;;;;;;;;;5115795;28;20024;-74
2021/06/27 09:18:03;;;;;;;7.15;6.18;;;;;;;;;;5116682;28;20034;-74
2021/06/27 09:20:30;;;;;;;9.43;6.68;;;;;;;;;;5113491;28;20020;-70
2021/06/27 09:22:56;;;;;;;6.72;5.82;;;;;;;;;;5108868;28;20027;-74
2021/06/27 09:25:22;;;;;;;8.88;5.97;;;;;;;;;;5110517;27;20399;-76
2021/06/27 09:27:57;;;;;;;5.63;5.13;;;;;;;;;;5106692;28;20051;-73
2021/06/27 09:30:26;;;;;;;6.10;5.60;;;;;;;;;;5104815;28;20423;-76
2021/06/27 09:32:56;;;;;;;7.47;5.60;;;;;;;;;;5099938;28;20076;-76
2021/06/27 09:35:40;;;;;;;5.80;5.20;;;;;;;;;;5099403;28;20107;-77
2021/06/27 09:38:23;;;;;;;5.35;4.85;;;;;;;;;;5091107;28;20081;-80
2021/06/27 09:40:49;;;;;;;5.45;4.95;;;;;;;;;;5098376;28;20024;-78
2021/06/27 09:43:17;;;;;;;6.47;4.70;;;;;;;;;;5096038;28;20620;-77
2021/06/27 09:45:54;;;;;;;8.00;4.63;;;;;;;;;;5102122;28;20017;-68
2021/06/27 09:48:19;;;;;;;7.03;4.45;;;;;;;;;;5103250;28;20016;-70
2021/06/27 09:50:46;;;;;;;4.82;4.43;;;;;;;;;;5114601;27;20064;-69
2021/06/27 09:53:50;;;;;;;7.00;4.90;;;;;;;;;;5096273;28;20459;-69
2021/06/27 09:56:18;;;;;;;4.82;4.43;;;;;;;;;;5070642;28;20120;-70
2021/06/27 09:59:04;;;;;;;5.55;4.53;;;;;;;;;;5072278;28;20032;-74
2021/06/27 10:01:30;;;;;;;4.82;4.40;;;;;;;;;;5093297;27;20028;-75
2021/06/27 10:03:57;;;;;;;4.43;4.03;;;;;;;;;;5119564;27;20427;-73
2021/06/27 10:06:25;;;;;;;4.85;4.30;;;;;;;;;;5126825;27;20047;-72
2021/06/27 10:08:51;;;;;;;4.88;4.47;;;;;;;;;;5112649;28;20016;-71
2021/06/27 10:11:18;;;;;;;4.43;4.03;;;;;;;;;;5131515;27;20433;-73
2021/06/27 10:13:47;;;;;;;4.93;4.32;;;;;;;;;;5119515;27;20560;-72
2021/06/27 10:16:26;;;;;;;4.78;4.30;;;;;;;;;;5128055;27;20054;-74
2021/06/27 10:18:51;;;;;;;4.45;3.90;;;;;;;;;;5114613;27;20016;-73
2021/06/27 10:21:17;;;;;;;4.28;3.88;;;;;;;;;;5123975;27;20030;-74
2021/06/27 10:23:45;;;;;;;4.32;3.92;;;;;;;;;;5095840;27;20027;-73
2021/06/27 10:26:10;;;;;;;10.15;4.22;;;;;;;;;;5093574;28;20085;-71
2021/06/27 10:28:36;;;;;;;4.20;3.80;;;;;;;;;;5120516;27;20391;-77
2021/06/27 10:31:01;;;;;;;4.85;4.25;;;;;;;;;;5129262;27;20023;-80
2021/06/27 10:33:26;;;;;;;4.43;3.90;;;;;;;;;;5117059;27;20455;-80
2021/06/27 10:35:54;;;;;;;4.75;4.00;;;;;;;;;;5117820;27;20068;-79
2021/06/27 10:38:21;;;;;;;4.00;3.70;;;;;;;;;;5118234;27;20039;-73
2021/06/27 10:40:50;;;;;;;3.60;3.30;;;;;;;;;;5112917;28;20032;-71
2021/06/27 10:43:16;;;;;;;3.60;3.30;;;;;;;;;;5096476;28;20084;-74
2021/06/27 10:45:46;;;;;;;5.47;3.53;;;;;;;;;;5115110;28;20019;-70
2021/06/27 10:48:30;;;;;;;3.70;3.40;;;;;;;;;;5097304;28;20019;-70
2021/06/27 10:50:55;;;;;;;3.50;3.20;;;;;;;;;;5094746;28;20078;-71
2021/06/27 10:53:20;;;;;;;3.33;3.03;;;;;;;;;;5096379;28;20024;-73
2021/06/27 10:55:46;;;;;;;3.40;2.97;;;;;;;;;;5095663;28;20265;-68
2021/06/27 10:58:14;;;;;;;3.45;3.17;;;;;;;;;;5109660;28;20277;-70
2021/06/27 11:00:56;;;;;;;3.40;3.05;;;;;;;;;;5114436;28;20027;-70
2021/06/27 11:03:27;;;;;;;3.95;3.22;;;;;;;;;;5114645;28;20015;-69
2021/06/27 11:05:56;;;;;;;3.92;3.10;;;;;;;;;;5114064;28;20482;-69
2021/06/27 11:08:48;;;;;;;3.10;2.90;;;;;;;;;;5114594;28;20019;-70
2021/06/27 11:11:23;;;;;;;3.78;2.85;;;;;;;;;;5109630;28;20027;-70
2021/06/27 11:14:07;;;;;;;3.33;3.03;;;;;;;;;;5114641;28;20045;-69
2021/06/27 11:16:52;;;;;;;3.10;2.78;;;;;;;;;;5114658;28;20024;-69
2021/06/27 11:19:29;;;;;;;4.70;3.08;;;;;;;;;;5108522;28;20302;-69
2021/06/27 11:22:12;;;;;;;3.00;2.70;;;;;;;;;;5112174;28;20027;-69
2021/06/27 11:24:37;;;;;;;4.35;2.78;;;;;;;;;;5108599;28;20016;-69
2021/06/27 11:27:03;;;;;;;3.13;2.67;;;;;;;;;;5114051;28;20458;-69
2021/06/27 11:29:30;;;;;;;5.10;2.70;;;;;;;;;;5113164;28;20020;-69
2021/06/27 11:32:04;;;;;;;4.53;2.63;;;;;;;;;;5113547;28;20103;-69
2021/06/27 11:34:32;;;;;;;3.97;2.72;;;;;;;;;;5094565;28;20020;-70
2021/06/27 11:37:27;;;;;;;2.83;2.63;;;;;;;;;;5113842;28;20023;-70
2021/06/27 11:39:52;;;;;;;4.47;2.50;;;;;;;;;;5103392;28;20063;-69
2021/06/27 11:42:20;;;;;;;3.20;2.90;;;;;;;;;;5113354;28;20116;-70
2021/06/27 11:44:48;;;;;;;2.80;2.60;;;;;;;;;;5110587;28;20026;-69
2021/06/27 11:47:24;;;;;;;3.13;2.85;;;;;;;;;;5103707;28;20142;-69
2021/06/27 11:49:52;;;;;;;3.13;2.83;;;;;;;;;;5112148;28;20355;-71
2021/06/27 11:52:17;;;;;;;3.00;2.58;;;;;;;;;;5113648;28;20089;-70
2021/06/27 11:54:42;;;;;;;3.07;2.70;;;;;;;;;;5094728;28;21658;-70
2021/06/27 11:57:10;;;;;;;3.20;2.77;;;;;;;;;;5112772;28;20027;-70
2021/06/27 11:59:36;;;;;;;3.70;2.78;;;;;;;;;;5113413;28;20715;-70
2021/06/27 12:02:04;;;;;;;3.30;3.00;;;;;;;;;;5113419;28;20023;-70
2021/06/27 12:04:36;;;;;;;5.95;5.30;;;;;;;;;;5111960;28;20024;-70
2021/06/27 12:07:02;;;;;;;9.48;8.55;;;;;;;;;;5093010;28;20376;-69
2021/06/27 12:09:35;;;;;;;6.05;3.65;;;;;;;;;;5093396;28;20008;-69
2021/06/27 12:12:05;;;;;;;4.05;3.40;;;;;;;;;;5093511;28;20024;-69
2021/06/27 12:14:40;;;;;;;3.20;2.95;;;;;;;;;;5101631;28;20523;-70
2021/06/27 12:17:24;;;;;;;4.10;3.28;;;;;;;;;;5113627;28;20603;-70
2021/06/27 12:19:52;;;;;;;4.30;4.00;;;;;;;;;;5113393;28;20035;-70
2021/06/27 12:22:17;;;;;;;5.18;3.42;;;;;;;;;;5113413;28;20041;-69
2021/06/27 12:24:43;;;;;;;3.63;3.33;;;;;;;;;;5103737;28;20099;-70
2021/06/27 12:27:12;;;;;;;6.13;4.20;;;;;;;;;;5097434;28;20039;-69
2021/06/27 12:29:37;;;;;;;4.03;3.63;;;;;;;;;;5113710;28;20253;-70
2021/06/27 12:32:05;;;;;;;3.97;3.57;;;;;;;;;;5107557;28;20069;-70
2021/06/27 12:34:30;;;;;;;4.97;3.40;;;;;;;;;;5110801;28;20624;-70
2021/06/27 12:36:56;;;;;;;3.60;3.30;;;;;;;;;;5108664;28;20023;-71
2021/06/27 12:39:24;;;;;;;3.90;3.53;;;;;;;;;;5102111;28;20016;-70
2021/06/27 12:41:52;;;;;;;3.65;3.35;;;;;;;;;;5102432;28;20020;-70
2021/06/27 12:44:18;;;;;;;4.40;3.47;;;;;;;;;;5104630;28;20417;-70
2021/06/27 12:46:46;;;;;;;3.90;3.60;;;;;;;;;;5105908;28;20077;-69
2021/06/27 12:49:18;;;;;;;5.40;3.53;;;;;;;;;;5112743;28;20336;-70
2021/06/27 12:51:44;;;;;;;3.65;3.35;;;;;;;;;;5107532;28;20062;-70
2021/06/27 12:54:19;;;;;;;3.95;3.65;;;;;;;;;;5106731;28;20098;-69
2021/06/27 12:56:49;;;;;;;4.03;3.30;;;;;;;;;;5109530;28;20037;-71
2021/06/27 12:59:16;;;;;;;3.28;3.00;;;;;;;;;;5096313;28;20015;-70
2021/06/27 13:01:58;;;;;;;3.40;3.10;;;;;;;;;;5104482;28;20021;-71
2021/06/27 13:04:24;;;;;;;3.60;3.30;;;;;;;;;;5103930;28;20020;-67
2021/06/27 13:06:56;;;;;;;3.90;2.75;;;;;;;;;;5111642;28;20427;-69
2021/06/27 13:09:21;;;;;;;3.85;2.95;;;;;;;;;;5103512;28;20020;-70
2021/06/27 13:12:06;;;;;;;3.10;2.90;;;;;;;;;;5093968;28;20028;-69
2021/06/27 13:14:31;;;;;;;3.13;2.92;;;;;;;;;;5111808;28;20281;-68
2021/06/27 13:17:03;;;;;;;4.63;3.17;;;;;;;;;;5112414;28;20035;-68
2021/06/27 13:19:29;;;;;;;2.90;2.70;;;;;;;;;;5111709;28;20034;-68
2021/06/27 13:22:11;;;;;;;3.37;3.07;;;;;;;;;;5112711;28;20016;-69
2021/06/27 13:24:54;;;;;;;5.97;4.70;;;;;;;;;;5103767;28;20264;-68
2021/06/27 13:27:19;;;;;;;2.95;2.75;;;;;;;;;;5091444;28;20047;-68
2021/06/27 13:30:05;;;;;;;3.30;3.00;;;;;;;;;;5091956;28;20016;-68
2021/06/27 13:32:30;;;;;;;3.53;3.00;;;;;;;;;;5074108;28;20040;-67
2021/06/27 13:34:56;;;;;;;4.78;2.90;;;;;;;;;;5092178;28;20028;-68
2021/06/27 13:37:21;;;;;;;3.03;2.70;;;;;;;;;;5112823;28;20072;-68
2021/06/27 13:39:46;;;;;;;3.63;2.40;;;;;;;;;;5104573;28;20111;-67
2021/06/27 13:42:12;;;;;;;3.95;2.67;;;;;;;;;;5096106;28;20397;-68
2021/06/27 13:44:54;;;;;;;2.65;2.45;;;;;;;;;;5116156;28;20020;-68
2021/06/27 13:47:19;;;;;;;3.80;2.80;;;;;;;;;;5115809;28;20053;-69
2021/06/27 13:49:44;;;;;;;3.93;2.30;;;;;;;;;;5116295;28;20089;-68
2021/06/27 13:52:10;;;;;;;2.53;2.33;;;;;;;;;;5095370;28;20106;-69
2021/06/27 13:54:35;;;;;;;22.80;16.17;;;;;;;;;;5116195;28;20095;-68
2021/06/27 13:57:00;;;;;;;6.00;4.27;;;;;;;;;;5115819;28;20023;-69
2021/06/27 13:59:25;;;;;;;3.50;3.20;;;;;;;;;;5115136;28;20019;-69
2021/06/27 14:01:50;;;;;;;2.97;2.47;;;;;;;;;;5116141;28;20024;-69
2021/06/27 14:04:16;;;;;;;3.73;2.50;;;;;;;;;;5116224;28;20022;-69
2021/06/27 14:06:42;;;;;;;2.97;2.72;;;;;;;;;;5116212;28;20039;-68
2021/06/27 14:09:07;;;;;;;2.93;2.57;;;;;;;;;;5115185;28;20028;-69
2021/06/27 14:11:35;;;;;;;2.65;2.45;;;;;;;;;;5115993;28;20020;-68
2021/06/27 14:14:03;;;;;;;2.50;2.30;;;;;;;;;;5116285;28;20384;-68
2021/06/27 14:16:29;;;;;;;3.22;2.92;;;;;;;;;;5114999;28;20034;-68
2021/06/27 14:18:54;;;;;;;3.22;2.72;;;;;;;;;;5115771;28;20524;-68
2021/06/27 14:21:20;;;;;;;3.03;2.73;;;;;;;;;;5114104;28;20016;-67
2021/06/27 14:23:45;;;;;;;3.03;2.83;;;;;;;;;;5100466;28;20019;-67
2021/06/27 14:26:13;;;;;;;4.90;3.27;;;;;;;;;;5115478;28;20287;-68
2021/06/27 14:28:38;;;;;;;4.15;3.75;;;;;;;;;;5114222;28;20352;-68
2021/06/27 14:31:06;;;;;;;2.97;2.75;;;;;;;;;;5115576;28;20094;-67
2021/06/27 14:33:31;;;;;;;4.75;3.40;;;;;;;;;;5097573;28;20019;-67
2021/06/27 14:35:56;;;;;;;3.10;2.80;;;;;;;;;;5115726;28;20084;-68
2021/06/27 14:38:24;;;;;;;2.70;2.50;;;;;;;;;;5095946;28;20032;-68
2021/06/27 14:40:49;;;;;;;2.80;2.58;;;;;;;;;;5112487;28;20137;-68
2021/06/27 14:43:15;;;;;;;3.28;2.90;;;;;;;;;;5114740;28;20099;-68
2021/06/27 14:45:43;;;;;;;2.83;2.55;;;;;;;;;;5096287;28;20033;-67
2021/06/27 14:48:10;;;;;;;2.85;2.63;;;;;;;;;;5115460;28;20020;-69